Time;durP1;ratioP1;P1;durP2;ratioP2;P2;SDS_P1;SDS_P2;PMS_P1;PMS_P2;Temp;Humidity;BMP_temperature;BMP_pressure;BME280_temperature;BME280_humidity;BME280_pressure;Samples;Min_cycle;Max_cycle;Signal;HPM_P1;HPM_P2
2021/11/07 00:04:48;;;;;;;;;;;10.00;97.60;;;;;;5020255;28;19910;-82
2021/11/07 00:12:20;;;;;;;;;;;10.00;97.80;;;;;;5020243;28;19916;-83
2021/11/07 00:14:48;;;;;;;;;;;10.00;97.90;;;;;;5019140;28;19909;-82
2021/11/07 00:17:15;;;;;;;;;;;10.00;97.80;;;;;;5016939;28;19963;-82
2021/11/07 00:22:58;;;;;;;;;;;10.00;97.90;;;;;;5013856;28;20311;-84
2021/11/07 00:30:28;;;;;;;;;;;10.00;97.90;;;;;;5016700;28;19914;-80
2021/11/07 00:38:43;;;;;;;;;;;10.00;98.00;;;;;;4983292;28;20362;-80
2021/11/07 00:43:59;;;;;;;;;;;10.00;98.00;;;;;;5016751;28;19953;-82
2021/11/07 00:46:38;;;;;;;;;;;10.10;98.00;;;;;;5022036;28;20008;-82
2021/11/07 00:49:07;;;;;;;;;;;10.00;97.90;;;;;;5014747;28;20003;-82
2021/11/07 00:51:46;;;;;;;;;;;10.00;97.90;;;;;;5015367;28;20365;-82
2021/11/07 00:54:23;;;;;;;;;;;10.00;98.00;;;;;;5015373;28;19914;-81
2021/11/07 00:56:52;;;;;;;;;;;10.10;98.00;;;;;;5016178;28;20013;-83
2021/11/07 00:59:29;;;;;;;;;;;10.10;98.00;;;;;;5014987;28;19971;-83
2021/11/07 01:02:05;;;;;;;;;;;10.10;98.00;;;;;;5016192;28;20019;-82
2021/11/07 01:04:30;;;;;;;;;;;10.10;98.00;;;;;;5015838;28;19920;-81
2021/11/07 01:06:56;;;;;;;;;;;10.10;98.10;;;;;;5016119;28;19910;-83
2021/11/07 01:09:21;;;;;;;;;;;10.10;98.00;;;;;;5015980;28;20003;-82
2021/11/07 01:11:47;;;;;;;;;;;10.10;98.10;;;;;;5016143;28;19910;-83
2021/11/07 01:14:13;;;;;;;;;;;10.10;98.10;;;;;;5015951;28;20255;-82
2021/11/07 01:16:39;;;;;;;;;;;10.10;98.10;;;;;;5015829;28;19916;-82
2021/11/07 01:19:05;;;;;;;;;;;10.20;98.20;;;;;;5015325;28;19909;-84
2021/11/07 01:21:34;;;;;;;;;;;10.20;98.20;;;;;;5015533;28;20282;-83
2021/11/07 01:24:03;;;;;;;;;;;10.20;98.10;;;;;;5015676;28;20016;-82
2021/11/07 01:26:33;;;;;;;;;;;10.20;98.10;;;;;;5015463;28;19973;-82
2021/11/07 01:29:05;;;;;;;;;;;10.20;98.10;;;;;;5015316;28;20421;-84
2021/11/07 01:31:32;;;;;;;;;;;10.20;98.10;;;;;;5013754;28;20343;-85
2021/11/07 01:33:59;;;;;;;;;;;10.30;98.10;;;;;;5015443;28;19913;-84
2021/11/07 01:36:42;;;;;;;;;;;10.30;98.10;;;;;;5015385;28;20433;-84
2021/11/07 01:42:00;;;;;;;;;;;10.40;98.10;;;;;;5015380;28;19943;-83
2021/11/07 01:44:34;;;;;;;;;;;10.30;98.10;;;;;;5015459;28;19909;-83
2021/11/07 01:47:00;;;;;;;;;;;10.30;98.10;;;;;;5014781;28;20024;-83
2021/11/07 01:49:33;;;;;;;;;;;10.30;98.00;;;;;;5014132;28;20382;-84
2021/11/07 01:52:01;;;;;;;;;;;10.30;98.00;;;;;;5015625;28;20004;-85
2021/11/07 01:54:35;;;;;;;;;;;10.30;98.10;;;;;;5015356;28;19910;-83
2021/11/07 01:57:02;;;;;;;;;;;10.30;98.10;;;;;;5014914;28;19945;-82
2021/11/07 01:59:27;;;;;;;;;;;10.40;98.10;;;;;;5013853;28;19920;-82
2021/11/07 02:01:54;;;;;;;;;;;10.40;98.10;;;;;;5014348;28;20022;-81
2021/11/07 02:04:19;;;;;;;;;;;10.40;98.10;;;;;;5013659;28;19992;-81
2021/11/07 02:06:45;;;;;;;;;;;10.40;98.10;;;;;;5014960;28;20024;-82
2021/11/07 02:09:10;;;;;;;;;;;10.30;98.10;;;;;;5014692;28;20458;-81
2021/11/07 02:11:36;;;;;;;;;;;10.40;98.20;;;;;;5014654;28;19952;-82
2021/11/07 02:14:02;;;;;;;;;;;10.40;98.20;;;;;;5013483;28;19916;-82
2021/11/07 02:16:27;;;;;;;;;;;10.40;98.20;;;;;;5014247;28;19909;-82
2021/11/07 02:18:53;;;;;;;;;;;10.50;98.20;;;;;;5014298;28;19928;-83
2021/11/07 02:21:18;;;;;;;;;;;10.50;98.20;;;;;;5013075;28;19918;-82
2021/11/07 02:23:44;;;;;;;;;;;10.50;98.20;;;;;;5014559;28;19924;-83
2021/11/07 02:26:09;;;;;;;;;;;10.50;98.10;;;;;;5014447;28;19923;-81
2021/11/07 02:28:36;;;;;;;;;;;10.60;98.10;;;;;;5014419;28;19956;-82
2021/11/07 02:31:03;;;;;;;;;;;10.60;98.10;;;;;;5013873;28;20008;-81
2021/11/07 02:33:29;;;;;;;;;;;10.50;98.10;;;;;;5014332;28;19913;-81
2021/11/07 02:35:54;;;;;;;;;;;10.60;98.10;;;;;;5014138;28;19956;-82
2021/11/07 02:38:20;;;;;;;;;;;10.60;98.10;;;;;;5013065;28;20319;-82
2021/11/07 02:40:45;;;;;;;;;;;10.60;98.10;;;;;;5013522;28;19944;-84
2021/11/07 02:43:11;;;;;;;;;;;10.60;98.20;;;;;;5013326;28;19914;-82
2021/11/07 02:45:36;;;;;;;;;;;10.60;98.20;;;;;;5013895;28;19910;-82
2021/11/07 02:48:02;;;;;;;;;;;10.70;98.20;;;;;;5013925;28;19909;-83
2021/11/07 02:50:27;;;;;;;;;;;10.70;98.10;;;;;;5014048;28;19932;-83
2021/11/07 02:52:53;;;;;;;;;;;10.70;98.20;;;;;;5013908;28;19932;-83
2021/11/07 02:55:22;;;;;;;;;;;10.70;98.10;;;;;;5012857;28;20025;-80
2021/11/07 02:57:47;;;;;;;;;;;10.70;98.20;;;;;;5013766;28;19988;-81
2021/11/07 03:00:16;;;;;;;;;;;10.80;98.20;;;;;;5013518;28;19957;-80
2021/11/07 03:02:42;;;;;;;;;;;10.80;98.20;;;;;;5014333;28;19932;-82
2021/11/07 03:05:09;;;;;;;;;;;10.80;98.20;;;;;;5012727;28;20299;-82
2021/11/07 03:07:35;;;;;;;;;;;10.80;98.20;;;;;;5014153;28;19956;-84
2021/11/07 03:10:01;;;;;;;;;;;10.80;98.20;;;;;;5013871;28;19913;-83
2021/11/07 03:12:26;;;;;;;;;;;10.90;98.20;;;;;;5013983;28;19909;-83
2021/11/07 03:14:52;;;;;;;;;;;10.90;98.20;;;;;;5013557;28;19932;-82
2021/11/07 03:17:20;;;;;;;;;;;10.90;98.20;;;;;;5015429;28;19913;-80
2021/11/07 03:19:46;;;;;;;;;;;10.90;98.20;;;;;;5014722;28;19964;-83
2021/11/07 03:22:15;;;;;;;;;;;10.90;98.20;;;;;;5014248;28;21282;-83
2021/11/07 03:24:41;;;;;;;;;;;10.90;98.20;;;;;;5013736;28;19910;-82
2021/11/07 03:27:13;;;;;;;;;;;11.00;98.20;;;;;;5013867;28;19995;-83
2021/11/07 03:29:40;;;;;;;;;;;11.00;98.20;;;;;;5012128;28;20286;-83
2021/11/07 03:32:14;;;;;;;;;;;11.00;98.20;;;;;;5013851;28;19909;-84
2021/11/07 03:34:45;;;;;;;;;;;11.10;98.20;;;;;;5012601;28;20381;-84
2021/11/07 03:37:12;;;;;;;;;;;11.10;98.20;;;;;;5013757;28;20370;-84
2021/11/07 03:39:39;;;;;;;;;;;11.10;98.10;;;;;;5014151;28;20354;-84
2021/11/07 03:42:06;;;;;;;;;;;11.10;98.10;;;;;;5013714;28;19924;-85
2021/11/07 03:44:31;;;;;;;;;;;11.10;98.10;;;;;;5014607;28;20063;-83
2021/11/07 03:46:57;;;;;;;;;;;11.10;98.10;;;;;;5013860;28;20381;-83
2021/11/07 03:49:23;;;;;;;;;;;11.20;98.10;;;;;;5013581;28;19913;-82
2021/11/07 03:51:48;;;;;;;;;;;11.20;98.10;;;;;;5014304;28;20000;-83
2021/11/07 03:54:18;;;;;;;;;;;11.20;98.10;;;;;;5017411;28;20290;-81
2021/11/07 03:56:43;;;;;;;;;;;11.20;98.00;;;;;;5015522;28;19963;-82
2021/11/07 03:59:09;;;;;;;;;;;11.20;98.10;;;;;;5016771;28;19925;-82
2021/11/07 04:01:36;;;;;;;;;;;11.20;98.20;;;;;;5016762;28;19929;-82
2021/11/07 04:04:03;;;;;;;;;;;11.20;98.10;;;;;;5017053;28;19909;-82
2021/11/07 04:06:29;;;;;;;;;;;11.20;98.20;;;;;;5017134;28;19916;-83
2021/11/07 04:08:55;;;;;;;;;;;11.20;98.10;;;;;;5015841;28;19909;-82
2021/11/07 04:11:20;;;;;;;;;;;11.20;98.10;;;;;;5016402;28;19916;-78
2021/11/07 04:13:47;;;;;;;;;;;11.10;98.10;;;;;;5016695;28;20456;-83
2021/11/07 04:16:14;;;;;;;;;;;11.00;98.10;;;;;;5016826;28;20349;-82
2021/11/07 04:18:40;;;;;;;;;;;11.00;98.10;;;;;;5015550;28;20278;-82
2021/11/07 04:21:05;;;;;;;;;;;10.90;98.10;;;;;;5016714;28;19925;-84
2021/11/07 04:23:31;;;;;;;;;;;10.90;98.10;;;;;;5016532;28;19913;-82
2021/11/07 04:25:56;;;;;;;;;;;10.90;98.10;;;;;;5015945;28;20374;-82
2021/11/07 04:28:22;;;;;;;;;;;10.90;98.10;;;;;;5015531;28;20412;-83
2021/11/07 04:30:48;;;;;;;;;;;10.90;98.10;;;;;;5015392;28;20384;-84
2021/11/07 04:33:15;;;;;;;;;;;10.90;98.10;;;;;;5016786;28;19917;-84
2021/11/07 04:35:40;;;;;;;;;;;10.90;98.00;;;;;;5016701;28;20036;-84
2021/11/07 04:38:06;;;;;;;;;;;10.80;98.00;;;;;;5016490;28;20390;-84
2021/11/07 04:40:31;;;;;;;;;;;10.80;98.00;;;;;;5016021;28;19917;-83
2021/11/07 04:42:57;;;;;;;;;;;10.70;98.00;;;;;;5016595;28;19909;-83
2021/11/07 04:45:22;;;;;;;;;;;10.70;98.00;;;;;;5016572;28;19909;-83
2021/11/07 04:47:48;;;;;;;;;;;10.70;97.90;;;;;;5016390;28;19963;-83
2021/11/07 04:50:15;;;;;;;;;;;10.70;98.00;;;;;;5014983;28;19910;-83
2021/11/07 04:52:41;;;;;;;;;;;10.70;98.00;;;;;;5016720;28;20008;-83
2021/11/07 04:55:07;;;;;;;;;;;10.60;97.90;;;;;;5015890;28;19984;-83
2021/11/07 04:57:33;;;;;;;;;;;10.60;98.00;;;;;;5016019;28;19921;-80
2021/11/07 04:59:58;;;;;;;;;;;10.60;97.90;;;;;;5016158;28;19913;-84
2021/11/07 05:02:24;;;;;;;;;;;10.60;97.90;;;;;;5014248;28;19925;-83
2021/11/07 05:04:55;;;;;;;;;;;10.60;97.90;;;;;;5015913;28;19946;-83
2021/11/07 05:07:21;;;;;;;;;;;10.60;98.00;;;;;;5016044;28;19910;-83
2021/11/07 05:09:47;;;;;;;;;;;10.60;97.90;;;;;;5015712;28;19916;-84
2021/11/07 05:12:12;;;;;;;;;;;10.60;97.90;;;;;;5015907;28;19996;-83
2021/11/07 05:14:38;;;;;;;;;;;10.60;98.00;;;;;;5015798;28;19917;-82
2021/11/07 05:17:03;;;;;;;;;;;10.60;98.00;;;;;;5014592;28;19909;-82
2021/11/07 05:19:29;;;;;;;;;;;10.60;98.00;;;;;;5015822;28;19910;-82
2021/11/07 05:21:55;;;;;;;;;;;10.60;98.00;;;;;;5015767;28;19918;-82
2021/11/07 05:24:20;;;;;;;;;;;10.60;97.80;;;;;;5015237;28;19923;-81
2021/11/07 05:26:47;;;;;;;;;;;10.60;97.80;;;;;;5015482;28;19909;-83
2021/11/07 05:29:12;;;;;;;;;;;10.60;97.80;;;;;;5015582;28;19909;-82
2021/11/07 05:31:38;;;;;;;;;;;10.60;97.80;;;;;;5014337;28;19910;-83
2021/11/07 05:34:04;;;;;;;;;;;10.60;97.80;;;;;;5015488;28;19964;-82
2021/11/07 05:36:31;;;;;;;;;;;10.60;97.80;;;;;;5015267;28;19909;-82
2021/11/07 05:38:57;;;;;;;;;;;10.60;97.80;;;;;;5013710;28;20266;-81
2021/11/07 05:41:23;;;;;;;;;;;10.60;97.80;;;;;;5015346;28;19917;-82
2021/11/07 05:43:48;;;;;;;;;;;10.50;97.60;;;;;;5016002;28;19913;-81
2021/11/07 05:46:14;;;;;;;;;;;10.50;97.60;;;;;;5014669;28;19909;-81
2021/11/07 05:48:39;;;;;;;;;;;10.50;97.70;;;;;;5015781;28;20277;-79
2021/11/07 05:51:06;;;;;;;;;;;10.50;97.70;;;;;;5015279;28;19909;-81
2021/11/07 05:53:31;;;;;;;;;;;10.40;97.70;;;;;;5014912;28;19988;-82
2021/11/07 05:55:57;;;;;;;;;;;10.50;97.60;;;;;;5015232;28;20354;-82
2021/11/07 05:58:23;;;;;;;;;;;10.40;97.50;;;;;;5014863;28;19944;-80
2021/11/07 06:00:48;;;;;;;;;;;10.40;97.60;;;;;;5015145;28;20407;-80
2021/11/07 06:03:15;;;;;;;;;;;10.30;97.60;;;;;;5015078;28;19909;-81
2021/11/07 06:05:40;;;;;;;;;;;10.30;97.50;;;;;;5014982;28;19917;-82
2021/11/07 06:08:06;;;;;;;;;;;10.30;97.50;;;;;;5013070;28;19913;-82
2021/11/07 06:10:31;;;;;;;;;;;10.30;97.50;;;;;;5014800;28;20000;-82
2021/11/07 06:12:57;;;;;;;;;;;10.20;97.50;;;;;;5014756;28;20020;-81
2021/11/07 06:15:22;;;;;;;;;;;10.20;97.50;;;;;;5012613;28;19996;-80
2021/11/07 06:17:48;;;;;;;;;;;10.20;97.50;;;;;;5014531;28;19921;-81
2021/11/07 06:20:13;;;;;;;;;;;10.20;97.40;;;;;;5014670;28;19909;-80
2021/11/07 06:22:39;;;;;;;;;;;10.10;97.40;;;;;;5013903;28;19972;-82
2021/11/07 06:25:04;;;;;;;;;;;10.00;97.40;;;;;;5014544;28;19909;-81
2021/11/07 06:27:30;;;;;;;;;;;10.00;97.30;;;;;;5014554;28;19910;-86
2021/11/07 06:29:57;;;;;;;;;;;9.90;97.30;;;;;;5014434;28;19980;-81
2021/11/07 06:32:22;;;;;;;;;;;9.90;97.30;;;;;;5014593;28;20332;-82
2021/11/07 06:34:48;;;;;;;;;;;9.80;97.30;;;;;;5014481;28;19909;-82
2021/11/07 06:37:13;;;;;;;;;;;9.80;97.30;;;;;;5012735;28;19917;-81
2021/11/07 06:39:39;;;;;;;;;;;9.70;97.30;;;;;;5014223;28;19910;-80
2021/11/07 06:42:05;;;;;;;;;;;9.70;97.30;;;;;;5014432;28;19971;-81
2021/11/07 06:44:31;;;;;;;;;;;9.70;97.30;;;;;;5014517;28;20000;-81
2021/11/07 06:46:57;;;;;;;;;;;9.60;97.30;;;;;;5013041;28;20273;-86
2021/11/07 06:49:22;;;;;;;;;;;9.60;97.30;;;;;;5014482;28;19992;-81
2021/11/07 06:51:48;;;;;;;;;;;9.50;97.30;;;;;;5014041;28;20278;-85
2021/11/07 06:54:13;;;;;;;;;;;9.50;97.30;;;;;;5014855;28;20266;-80
2021/11/07 06:56:39;;;;;;;;;;;9.50;97.30;;;;;;5014289;28;19913;-83
2021/11/07 06:59:06;;;;;;;;;;;9.50;97.30;;;;;;5014163;28;19932;-83
2021/11/07 07:01:32;;;;;;;;;;;9.50;97.30;;;;;;5013927;28;20389;-81
2021/11/07 07:03:57;;;;;;;;;;;9.50;97.30;;;;;;5013848;28;19910;-81
2021/11/07 07:06:22;;;;;;;;;;;9.40;97.30;;;;;;5013482;28;19948;-79
2021/11/07 07:08:54;;;;;;;;;;;9.40;97.20;;;;;;5014000;28;20380;-80
2021/11/07 07:11:36;;;;;;;;;;;9.30;97.20;;;;;;5014127;28;19964;-78
2021/11/07 07:14:08;;;;;;;;;;;9.30;97.20;;;;;;5012681;28;19913;-79
2021/11/07 07:19:06;;;;;;;;;;;9.30;97.20;;;;;;5014089;28;20007;-80
2021/11/07 07:29:27;;;;;;;;;;;9.40;97.30;;;;;;5018010;28;19964;-81
2021/11/07 07:32:25;;;;;;;;;;;9.50;97.30;;;;;;5017693;28;19919;-80
2021/11/07 07:34:53;;;;;;;;;;;9.50;97.20;;;;;;5017334;28;20293;-81
2021/11/07 07:37:19;;;;;;;;;;;9.60;97.10;;;;;;5016497;28;20004;-78
2021/11/07 07:39:45;;;;;;;;;;;9.60;97.10;;;;;;5017604;28;19956;-80
2021/11/07 07:42:11;;;;;;;;;;;9.60;97.10;;;;;;5017439;28;19965;-79
2021/11/07 07:44:36;;;;;;;;;;;9.60;97.10;;;;;;5017293;28;19909;-79
2021/11/07 07:47:02;;;;;;;;;;;9.60;97.10;;;;;;5016027;28;20381;-82
2021/11/07 07:49:28;;;;;;;;;;;9.60;97.10;;;;;;5015628;28;19988;-80
2021/11/07 07:51:55;;;;;;;;;;;9.60;97.10;;;;;;5016234;28;19913;-80
2021/11/07 07:54:21;;;;;;;;;;;9.60;97.10;;;;;;5017092;28;19920;-82
2021/11/07 07:56:46;;;;;;;;;;;9.60;97.10;;;;;;5017239;28;19909;-79
2021/11/07 07:59:12;;;;;;;;;;;9.60;97.10;;;;;;5017044;28;20063;-79
2021/11/07 08:01:37;;;;;;;;;;;9.60;97.10;;;;;;5015808;28;19971;-76
2021/11/07 08:04:03;;;;;;;;;;;9.60;97.10;;;;;;5015272;28;19910;-78
2021/11/07 08:06:29;;;;;;;;;;;9.70;97.10;;;;;;5017161;28;20388;-78
2021/11/07 08:08:55;;;;;;;;;;;9.70;97.20;;;;;;5016954;28;20000;-79
2021/11/07 08:11:21;;;;;;;;;;;9.80;97.20;;;;;;5017040;28;19914;-79
2021/11/07 08:13:50;;;;;;;;;;;9.90;97.20;;;;;;5016829;28;19909;-79
2021/11/07 08:16:15;;;;;;;;;;;9.90;97.20;;;;;;5016836;28;19909;-79
2021/11/07 08:18:41;;;;;;;;;;;10.00;97.20;;;;;;5016435;28;19913;-79
2021/11/07 08:21:06;;;;;;;;;;;10.20;97.30;;;;;;5015394;28;19917;-78
2021/11/07 08:23:32;;;;;;;;;;;10.30;97.20;;;;;;5016751;28;19980;-79
2021/11/07 08:25:59;;;;;;;;;;;10.40;97.10;;;;;;5016738;28;19910;-78
2021/11/07 08:28:24;;;;;;;;;;;10.40;97.10;;;;;;5016489;28;20302;-80
2021/11/07 08:30:55;;;;;;;;;;;10.40;97.10;;;;;;5016873;28;19955;-80
2021/11/07 08:33:20;;;;;;;;;;;10.20;97.00;;;;;;5016176;28;19913;-78
2021/11/07 08:35:47;;;;;;;;;;;10.00;97.00;;;;;;5016280;28;20008;-86
2021/11/07 08:38:17;;;;;;;;;;;9.80;97.00;;;;;;5015670;28;20067;-78
2021/11/07 08:40:48;;;;;;;;;;;9.60;97.10;;;;;;5016436;28;19913;-78
2021/11/07 09:04:57;;;;;;;;;;;9.80;97.40;;;;;;5016019;28;19948;-78
2021/11/07 09:07:36;;;;;;;;;;;9.90;97.40;;;;;;5015970;28;19909;-78
2021/11/07 09:10:05;;;;;;;;;;;10.10;97.40;;;;;;5015816;28;20250;-76
2021/11/07 09:12:30;;;;;;;;;;;10.20;97.40;;;;;;5015790;28;19916;-79
2021/11/07 09:14:56;;;;;;;;;;;10.40;97.40;;;;;;5014579;28;19910;-78
2021/11/07 09:17:22;;;;;;;;;;;10.50;97.40;;;;;;5015271;28;19914;-76
2021/11/07 09:19:50;;;;;;;;;;;10.70;97.40;;;;;;5015600;28;19910;-77
2021/11/07 09:22:27;;;;;;;;;;;10.80;97.30;;;;;;5014241;28;20336;-77
2021/11/07 09:25:19;;;;;;;;;;;10.90;97.50;;;;;;5014457;28;20358;-76
2021/11/07 09:33:09;;;;;;;;;;;11.10;97.10;;;;;;4992399;28;19909;-76
2021/11/07 09:35:58;;;;;;;;;;;11.00;97.00;;;;;;5015296;28;19909;-77
2021/11/07 09:38:31;;;;;;;;;;;11.00;97.10;;;;;;5015365;28;19909;-75
2021/11/07 09:41:12;;;;;;;;;;;10.90;97.10;;;;;;5015307;28;19964;-77
2021/11/07 09:49:10;;;;;;;;;;;11.20;97.20;;;;;;5015278;28;19921;-75
2021/11/07 09:51:36;;;;;;;;;;;11.40;97.10;;;;;;5015083;28;19910;-76
2021/11/07 09:54:03;;;;;;;;;;;11.60;97.10;;;;;;5015070;28;19956;-77
2021/11/07 09:56:28;;;;;;;;;;;11.70;97.10;;;;;;5015101;28;19910;-78
2021/11/07 09:58:56;;;;;;;;;;;11.70;96.90;;;;;;5014465;28;20420;-80
2021/11/07 10:01:23;;;;;;;;;;;11.70;96.90;;;;;;5014777;28;19922;-77
2021/11/07 10:03:50;;;;;;;;;;;11.50;96.90;;;;;;5014835;28;19909;-75
2021/11/07 10:06:41;;;;;;;;;;;11.40;97.00;;;;;;5015041;28;19909;-77
2021/11/07 10:09:06;;;;;;;;;;;11.30;97.00;;;;;;5014928;28;19910;-78
2021/11/07 10:11:34;;;;;;;;;;;11.30;97.00;;;;;;5014791;28;19988;-80
2021/11/07 10:14:04;;;;;;;;;;;11.40;97.10;;;;;;5014385;28;20497;-78
2021/11/07 10:16:34;;;;;;;;;;;11.50;97.10;;;;;;5014932;28;19910;-77
2021/11/07 10:19:12;;;;;;;;;;;11.70;97.10;;;;;;5014794;28;19909;-80
2021/11/07 10:21:44;;;;;;;;;;;11.90;97.00;;;;;;5014646;28;20279;-77
2021/11/07 10:24:14;;;;;;;;;;;12.10;97.00;;;;;;5014411;28;19917;-77
2021/11/07 10:26:42;;;;;;;;;;;12.30;97.00;;;;;;5014592;28;19917;-77
2021/11/07 10:29:11;;;;;;;;;;;12.40;96.80;;;;;;5014153;28;19916;-77
2021/11/07 10:32:01;;;;;;;;;;;12.40;96.70;;;;;;5014456;28;19916;-75
2021/11/07 10:39:37;;;;;;;;;;;12.30;96.80;;;;;;5014333;28;19910;-76
2021/11/07 10:47:28;;;;;;;;;;;12.60;96.80;;;;;;5014945;28;20370;-84
2021/11/07 10:52:39;;;;;;;;;;;12.70;96.80;;;;;;5014475;28;19995;-81
2021/11/07 10:55:06;;;;;;;;;;;12.60;96.80;;;;;;5014357;28;19917;-80
2021/11/07 10:57:33;;;;;;;;;;;12.60;96.80;;;;;;5012272;28;19949;-79
2021/11/07 11:00:17;;;;;;;;;;;12.60;96.90;;;;;;5014158;28;19914;-80
2021/11/07 11:02:48;;;;;;;;;;;12.70;96.90;;;;;;5013962;28;19921;-81
2021/11/07 11:05:13;;;;;;;;;;;12.60;96.80;;;;;;5014045;28;19996;-79
2021/11/07 11:08:16;;;;;;;;;;;12.50;96.80;;;;;;5014094;28;19944;-81
2021/11/07 11:11:32;;;;;;;;;;;12.50;96.80;;;;;;4973105;28;20347;-81
2021/11/07 11:13:38;;;;;;;;;;;12.40;96.80;;;;;;4965619;28;19914;-80
2021/11/07 11:19:08;;;;;;;;;;;12.20;96.90;;;;;;4972932;28;19910;-79
2021/11/07 11:29:07;;;;;;;;;;;12.40;96.90;;;;;;4972674;28;20339;-82
2021/11/07 11:31:42;;;;;;;;;;;12.50;96.80;;;;;;4972854;28;19910;-81
2021/11/07 11:34:13;;;;;;;;;;;12.50;96.80;;;;;;4972808;28;20370;-81
2021/11/07 11:36:46;;;;;;;;;;;12.50;96.80;;;;;;4973121;28;19910;-82
2021/11/07 11:39:19;;;;;;;;;;;12.60;96.70;;;;;;4972703;28;19914;-81
2021/11/07 11:41:52;;;;;;;;;;;12.50;96.80;;;;;;4972281;28;19962;-81
2021/11/07 11:44:19;;;;;;;;;;;12.50;96.80;;;;;;4972993;28;19989;-87
2021/11/07 11:47:13;;;;;;;;;;;12.50;96.80;;;;;;4996702;28;20397;-82
2021/11/07 11:49:55;;;;;;;;;;;12.40;96.90;;;;;;5013666;28;19944;-82
2021/11/07 11:52:32;;;;;;;;;;;12.40;96.90;;;;;;5013911;28;19909;-80
2021/11/07 11:55:07;;;;;;;;;;;12.40;96.90;;;;;;5013058;28;19910;-81
2021/11/07 12:03:01;;;;;;;;;;;12.20;96.80;;;;;;5013659;28;19918;-83
2021/11/07 12:08:13;;;;;;;;;;;11.90;96.80;;;;;;5014259;28;19909;-84
2021/11/07 12:10:53;;;;;;;;;;;11.70;96.80;;;;;;5013336;28;19909;-85
2021/11/07 12:13:35;;;;;;;;;;;11.60;96.80;;;;;;5015183;28;19909;-84
2021/11/07 12:16:09;;;;;;;;;;;11.40;96.80;;;;;;5017284;28;19910;-80
2021/11/07 12:18:54;;;;;;;;;;;11.30;96.80;;;;;;5017152;28;19909;-83
2021/11/07 12:21:23;;;;;;;;;;;11.10;97.00;;;;;;5016794;28;19996;-83
2021/11/07 12:24:04;;;;;;;;;;;10.90;96.90;;;;;;5016811;28;19909;-82
2021/11/07 12:26:30;;;;;;;;;;;10.90;97.00;;;;;;5016921;28;19932;-82
2021/11/07 12:28:58;;;;;;;;;;;10.90;97.30;;;;;;5016878;28;19916;-83
2021/11/07 12:31:25;;;;;;;;;;;11.00;97.10;;;;;;5016947;28;19916;-80
2021/11/07 12:33:58;;;;;;;;;;;11.00;97.00;;;;;;5016814;28;20068;-80
2021/11/07 12:41:34;;;;;;;;;;;11.10;97.00;;;;;;5016422;28;20278;-83
2021/11/07 12:44:02;;;;;;;;;;;11.40;97.30;;;;;;5015270;28;19910;-79
2021/11/07 12:46:46;;;;;;;;;;;11.90;97.30;;;;;;5016334;28;19909;-83
2021/11/07 12:49:19;;;;;;;;;;;12.20;97.10;;;;;;5016385;28;20056;-84
2021/11/07 12:52:16;;;;;;;;;;;12.50;96.70;;;;;;5016325;28;19977;-82
2021/11/07 12:54:42;;;;;;;;;;;12.60;96.40;;;;;;5007880;28;19948;-84
2021/11/07 12:57:19;;;;;;;;;;;12.60;96.10;;;;;;5017238;28;19971;-84
2021/11/07 12:59:53;;;;;;;;;;;12.50;96.00;;;;;;5018797;28;19913;-84
2021/11/07 13:02:19;;;;;;;;;;;12.30;96.00;;;;;;5018408;28;19922;-87
2021/11/07 13:05:07;;;;;;;;;;;12.20;96.20;;;;;;5018418;28;20285;-85
2021/11/07 13:07:44;;;;;;;;;;;12.10;96.20;;;;;;5012888;28;19937;-83
2021/11/07 13:10:14;;;;;;;;;;;12.00;96.30;;;;;;5016788;28;19910;-84
2021/11/07 13:12:44;;;;;;;;;;;11.90;96.40;;;;;;5016124;28;19956;-87
2021/11/07 13:15:19;;;;;;;;;;;11.90;96.70;;;;;;5015386;28;19910;-85
2021/11/07 13:18:13;;;;;;;;;;;12.00;96.70;;;;;;5016022;28;19917;-86
2021/11/07 13:24:01;;;;;;;;;;;11.90;96.80;;;;;;5016016;28;19913;-86
2021/11/07 13:26:23;;;;;;;;;;;11.90;96.70;;;;;;5006179;28;19910;-84
2021/11/07 13:31:49;;;;;;;;;;;12.00;96.90;;;;;;5016203;28;19957;-84
2021/11/07 13:34:18;;;;;;;;;;;12.00;96.80;;;;;;5016004;28;19909;-83
2021/11/07 13:36:44;;;;;;;;;;;11.90;96.70;;;;;;5015103;28;20294;-84
2021/11/07 13:39:11;;;;;;;;;;;11.80;96.90;;;;;;5014267;28;20309;-85
2021/11/07 13:41:38;;;;;;;;;;;11.80;96.80;;;;;;5015276;28;19922;-84
2021/11/07 13:44:17;;;;;;;;;;;11.60;96.70;;;;;;5015365;28;19948;-80
2021/11/07 13:46:50;;;;;;;;;;;11.40;96.70;;;;;;5015265;28;20397;-82
2021/11/07 13:49:16;;;;;;;;;;;11.20;96.70;;;;;;5015215;28;20421;-81
2021/11/07 13:52:02;;;;;;;;;;;11.10;96.90;;;;;;5013528;28;19917;-80
2021/11/07 13:54:28;;;;;;;;;;;10.90;97.00;;;;;;5015168;28;19952;-80
2021/11/07 13:56:54;;;;;;;;;;;10.80;97.10;;;;;;5015149;28;19956;-80
2021/11/07 13:59:39;;;;;;;;;;;10.80;97.00;;;;;;5014917;28;19944;-86
2021/11/07 14:02:10;;;;;;;;;;;10.60;96.80;;;;;;5013681;28;19940;-79
2021/11/07 14:04:40;;;;;;;;;;;10.10;96.40;;;;;;5015071;28;20004;-80
2021/11/07 14:07:32;;;;;;;;;;;9.70;96.80;;;;;;5014589;28;19909;-81
2021/11/07 14:10:18;;;;;;;;;;;9.40;96.90;;;;;;5012902;28;19909;-83
2021/11/07 14:12:50;;;;;;;;;;;8.90;96.90;;;;;;5013550;28;20020;-82
2021/11/07 14:15:33;;;;;;;;;;;8.70;97.30;;;;;;5014868;28;20421;-82
2021/11/07 14:18:08;;;;;;;;;;;8.60;97.50;;;;;;5014772;28;19910;-82
2021/11/07 14:20:46;;;;;;;;;;;8.50;98.00;;;;;;5014178;28;20077;-82
2021/11/07 14:23:25;;;;;;;;;;;8.50;98.10;;;;;;5014428;28;20385;-81
2021/11/07 14:25:59;;;;;;;;;;;8.60;98.20;;;;;;5014557;28;19910;-81
2021/11/07 14:28:37;;;;;;;;;;;8.60;98.20;;;;;;5013314;28;19910;-81
2021/11/07 14:31:13;;;;;;;;;;;8.70;98.30;;;;;;5014649;28;19956;-83
2021/11/07 14:33:46;;;;;;;;;;;8.80;98.30;;;;;;5014593;28;19917;-80
2021/11/07 14:36:49;;;;;;;;;;;8.90;98.20;;;;;;5013323;28;19920;-81
2021/11/07 14:39:15;;;;;;;;;;;9.00;98.20;;;;;;5011330;28;20358;-81
2021/11/07 14:41:57;;;;;;;;;;;9.10;98.20;;;;;;5014318;28;19973;-81
2021/11/07 14:44:42;;;;;;;;;;;9.20;98.10;;;;;;5014265;28;19956;-80
2021/11/07 14:50:40;;;;;;;;;;;9.30;98.10;;;;;;5000911;28;19997;-82
2021/11/07 14:55:44;;;;;;;;;;;9.40;98.00;;;;;;5014490;28;19910;-81
2021/11/07 14:58:50;;;;;;;;;;;9.40;98.00;;;;;;5014120;28;19943;-81
2021/11/07 15:01:23;;;;;;;;;;;9.40;98.00;;;;;;5011706;28;19971;-81
2021/11/07 15:03:57;;;;;;;;;;;9.40;98.00;;;;;;5013777;28;20396;-80
2021/11/07 15:06:44;;;;;;;;;;;9.50;98.00;;;;;;5014061;28;19909;-79
2021/11/07 15:09:23;;;;;;;;;;;9.50;98.00;;;;;;5012830;28;20330;-80
2021/11/07 15:12:17;;;;;;;;;;;9.50;97.90;;;;;;5012775;28;19940;-80
2021/11/07 15:14:51;;;;;;;;;;;9.50;97.90;;;;;;5014032;28;19909;-80
2021/11/07 15:17:23;;;;;;;;;;;9.60;97.80;;;;;;5014258;28;19910;-80
2021/11/07 15:19:55;;;;;;;;;;;9.60;97.80;;;;;;5013357;28;20322;-81
2021/11/07 15:22:37;;;;;;;;;;;9.50;97.70;;;;;;5013860;28;19971;-76
2021/11/07 15:25:06;;;;;;;;;;;9.50;97.70;;;;;;5013851;28;19909;-78
2021/11/07 15:27:31;;;;;;;;;;;9.50;97.60;;;;;;5013662;28;19964;-77
2021/11/07 15:30:01;;;;;;;;;;;9.50;97.60;;;;;;5013699;28;19914;-77
2021/11/07 15:32:30;;;;;;;;;;;9.40;97.60;;;;;;5013250;28;19913;-76
2021/11/07 15:34:56;;;;;;;;;;;9.40;97.60;;;;;;5012400;28;19917;-75
2021/11/07 15:37:26;;;;;;;;;;;9.40;97.60;;;;;;5013579;28;20441;-75
2021/11/07 15:39:54;;;;;;;;;;;9.40;97.60;;;;;;5013591;28;20358;-75
2021/11/07 15:42:24;;;;;;;;;;;9.40;97.60;;;;;;5013691;28;19924;-75
2021/11/07 15:47:26;;;;;;;;;;;9.30;97.60;;;;;;5015101;28;19909;-76
2021/11/07 15:54:57;;;;;;;;;;;9.10;97.50;;;;;;5014860;28;19913;-76
2021/11/07 15:57:52;;;;;;;;;;;9.10;97.40;;;;;;5014403;28;19949;-76
2021/11/07 16:00:21;;;;;;;;;;;9.00;97.40;;;;;;5014110;28;19959;-76
2021/11/07 16:05:35;;;;;;;;;;;8.90;97.40;;;;;;5014302;28;20425;-75
2021/11/07 16:08:12;;;;;;;;;;;8.90;97.30;;;;;;5014394;28;19913;-75
2021/11/07 16:11:01;;;;;;;;;;;8.80;97.30;;;;;;5014096;28;20362;-76
2021/11/07 16:13:42;;;;;;;;;;;8.70;97.30;;;;;;5014319;28;20290;-76
2021/11/07 16:18:44;;;;;;;;;;;8.70;97.30;;;;;;5014411;28;19917;-76
2021/11/07 16:21:14;;;;;;;;;;;8.70;97.30;;;;;;5012845;28;19922;-77
2021/11/07 16:23:39;;;;;;;;;;;8.60;97.30;;;;;;5012643;28;19964;-76
2021/11/07 16:26:11;;;;;;;;;;;8.60;97.20;;;;;;5012768;28;20389;-76
2021/11/07 16:28:37;;;;;;;;;;;8.50;97.10;;;;;;5013810;28;20219;-76
2021/11/07 16:31:07;;;;;;;;;;;8.50;97.10;;;;;;5013733;28;19996;-75
2021/11/07 16:33:37;;;;;;;;;;;8.50;97.20;;;;;;5012311;28;19921;-76
2021/11/07 16:36:12;;;;;;;;;;;8.50;97.10;;;;;;5014125;28;19917;-76
2021/11/07 16:41:08;;;;;;;;;;;8.50;97.10;;;;;;5013462;28;20007;-76
2021/11/07 16:43:35;;;;;;;;;;;8.50;97.20;;;;;;5013905;28;19937;-77
2021/11/07 16:46:05;;;;;;;;;;;8.50;97.20;;;;;;5012183;28;20357;-76
2021/11/07 16:48:31;;;;;;;;;;;8.50;97.20;;;;;;5013617;28;19909;-76
2021/11/07 16:51:04;;;;;;;;;;;8.60;97.20;;;;;;5025699;28;20404;-76
2021/11/07 16:53:34;;;;;;;;;;;8.70;97.20;;;;;;5031322;28;20246;-76